Flight Track Log - Related Links

Times and Time Zones

All times are in EDT time to prevent confusion due to time zone crossing. See the JST1 flight status page for this flight to view local times or setup timezone preferences in your user account.

Time Position Orientation Groundspeed Altitude Reporting Facility
EDT Latitude Longitude Course Direction KTS MPH feet Rate Location/Type
Tue 02:41:32 AM -37.6670 144.8420 253° West 12 14  Level FlightAware ADS-B
Tue 02:42:12 AM -37.6700 144.8420 180° South 18 21 112 Level FlightAware ADS-B
Tue 02:42:27 AM -37.6710 144.8420 180° South 15 17 119 Level FlightAware ADS-B
Tue 02:43:17 AM -37.6720 144.8450 113° Southeast 11 13 122 Level FlightAware ADS-B
Tue 02:43:32 AM -37.6730 144.8450 180° South 13 15 133 Level FlightAware ADS-B
Tue 02:48:00 AM -37.4260 145.1203 40° Northeast  Level FlightAware Approximate
Tue 02:48:02 AM -37.6850 144.8430 40° Northeast 6 7  Level FlightAware ADS-B
Tue 02:48:17 AM -37.6860 144.8420 218° Southwest 5 6 282 Level FlightAware ADS-B
Tue 02:50:00 AM -37.5133 145.0266 40° Northeast  Level FlightAware Approximate
Tue 02:52:17 AM -37.6490 144.8340 352° North 158 182 1,200  Level FlightAware ADS-B
Tue 02:52:42 AM -37.6300 144.8300 351° North 172 198 1,700 1,091 Climbing FlightAware ADS-B
Tue 02:53:12 AM -37.6040 144.8260 353° North 206 237 2,200 1,080 Climbing FlightAware ADS-B
Tue 02:53:32 AM -37.5850 144.8290 North 228 262 2,600 1,745 Climbing FlightAware ADS-B
Tue 02:54:07 AM -37.5440 144.8410 13° North 256 295 3,800 2,215 Climbing FlightAware ADS-B
Tue 02:54:37 AM -37.5080 144.8520 14° North 272 313 5,000 3,231 Climbing FlightAware ADS-B
Tue 02:54:59 AM -37.4739 144.8616 14° North 269 310 6,600 2,880 Climbing Aus ATC (RADAR)
Tue 02:55:02 AM -37.4760 144.8610 14° North 273 314 6,200 667 Descending FlightAware ADS-B
Tue 02:55:17 AM -37.4580 144.8680 17° North 279 321 6,800 2,600 Climbing FlightAware ADS-B
Tue 02:55:32 AM -37.4440 144.8840 42° Northeast 283 326 7,500 2,700 Climbing FlightAware ADS-B
Tue 02:55:57 AM -37.4260 144.9180 56° Northeast 285 328 8,600 2,509 Climbing FlightAware ADS-B
Tue 02:56:27 AM -37.4030 144.9600 55° Northeast 290 334 9,800 2,226 Climbing FlightAware ADS-B
Tue 02:56:59 AM -37.3724 145.0131 55° Northeast 306 352 10,900 1,309 Climbing Aus ATC (RADAR)
Tue 02:57:22 AM -37.3540 145.0460 55° Northeast 343 395 11,000 1,729 Climbing FlightAware ADS-B
Tue 02:57:58 AM -37.3167 145.1116 55° Northeast 352 405 12,600 2,133 Climbing Aus ATC (RADAR)
Tue 02:58:07 AM -37.3120 145.1210 55° Northeast 357 411 12,600 2,204 Level FlightAware ADS-B
Tue 02:58:47 AM -37.2730 145.1890 54° Northeast 355 409 14,400 3,380 Climbing FlightAware ADS-B
Tue 02:59:18 AM -37.2405 145.2464 54° Northeast 351 404 16,600 3,333 Climbing Aus ATC (RADAR)
Tue 02:59:32 AM -37.2310 145.2630 54° Northeast 335 386 16,900 1,837 Climbing FlightAware ADS-B
Tue 03:00:07 AM -37.2020 145.3150 54° Northeast 342 394 18,100 2,595 Climbing FlightAware ADS-B
Tue 03:00:09 AM -37.1953 145.3256 54° Northeast 340 391 18,500 3,231 Climbing Aus ATC (RADAR)
Tue 03:00:33 AM -37.1724 145.3657 54° Northeast 341 392 19,500 1,535 Climbing Aus ATC (RADAR)
Tue 03:00:52 AM -37.1590 145.3900 54° Northeast 346 398 19,600 1,406 Climbing FlightAware ADS-B
Tue 03:01:37 AM -37.1150 145.4670 54° Northeast 353 406 21,000 2,113 Climbing FlightAware ADS-B
Tue 03:02:03 AM -37.0878 145.5143 54° Northeast 356 410 22,100 1,650 Climbing Aus ATC (RADAR)
Tue 03:02:17 AM -37.0770 145.5340 54° Northeast 359 413 22,100 1,222 Level FlightAware ADS-B
Tue 03:02:57 AM -37.0380 145.6020 54° Northeast 365 420 23,200 1,624 Climbing FlightAware ADS-B
Tue 03:03:42 AM -36.9930 145.6800 54° Northeast 370 426 24,400 1,200 Climbing FlightAware ADS-B
Tue 03:04:22 AM -36.9520 145.7520 55° Northeast 390 449 24,900 706 Climbing FlightAware ADS-B
Tue 03:05:07 AM -36.9030 145.8360 54° Northeast 411 473 25,400 1,026 Climbing FlightAware ADS-B
Tue 03:05:38 AM -36.8650 145.9004 54° Northeast 416 479 26,200 1,050 Climbing Aus ATC (RADAR)
Tue 03:05:47 AM -36.8580 145.9130 54° Northeast 421 484 26,100 1,400 Descending FlightAware ADS-B
Tue 03:06:38 AM -36.7954 146.0186 54° Northeast 425 489 27,600 1,579 Climbing Aus ATC (RADAR)
Tue 03:07:03 AM -36.7670 146.0691 55° Northeast 427 491 28,100 1,320 Climbing Aus ATC (RADAR)
Tue 03:07:28 AM -36.7375 146.1187 53° Northeast 428 493 28,700 915 Climbing Aus ATC (RADAR)
Tue 03:08:02 AM -36.7070 146.1740 53° Northeast 428 493 29,000 1,214 Climbing FlightAware ADS-B
Tue 03:08:52 AM -36.6384 146.2884 53° Northeast 430 495 30,400 1,271 Climbing Aus ATC (RADAR)
Tue 03:09:27 AM -36.5971 146.3593 54° Northeast 434 499 30,800 667 Climbing Aus ATC (RADAR)
Tue 03:10:22 AM -36.5298 146.4712 53° Northeast 442 509 31,400 600 Climbing Aus ATC (RADAR)
Tue 03:10:37 AM -36.5116 146.5030 55° Northeast 447 514 31,500 -900 Climbing Aus ATC (RADAR)
Tue 03:10:42 AM -36.5170 146.4980 55° Northeast 453 521 31,100 -133 Descending FlightAware ADS-B
Tue 03:11:22 AM -36.4670 146.5830 54° Northeast 462 532 31,400 873 Climbing FlightAware ADS-B
Tue 03:11:37 AM -36.4367 146.6311 54° Northeast 461 531 31,900 400 Climbing Aus ATC (RADAR)
Tue 03:12:07 AM -36.4070 146.6830 54° Northeast 474 545 31,700 360 Descending FlightAware ADS-B
Tue 03:12:27 AM -36.3717 146.7405 54° Northeast 473 544 32,200 600 Climbing Aus ATC (RADAR)
Tue 03:12:47 AM -36.3560 146.7700 54° Northeast 480 552 32,100 857 Descending FlightAware ADS-B
Tue 03:13:02 AM -36.3257 146.8181 54° Northeast 478 550 32,700 600 Climbing Aus ATC (RADAR)
Tue 03:13:27 AM -36.3020 146.8620 54° Northeast 484 557 32,500 480 Descending FlightAware ADS-B
Tue 03:13:52 AM -36.2589 146.9297 54° Northeast 484 557 33,100 533 Climbing Aus ATC (RADAR)
Tue 03:14:12 AM -36.2400 146.9660 54° Northeast 490 564 32,900 514 Descending FlightAware ADS-B
Tue 03:14:27 AM -36.2115 147.0088 54° Northeast 489 563 33,400 600 Climbing Aus ATC (RADAR)
Tue 03:14:52 AM -36.1860 147.0550 54° Northeast 493 567 33,300 720 Descending FlightAware ADS-B
Tue 03:15:17 AM -36.1438 147.1219 54° Northeast 490 564 34,000 800 Climbing Aus ATC (RADAR)
Tue 03:15:37 AM -36.1260 147.1550 54° Northeast 493 567 33,900 300 Descending FlightAware ADS-B
Tue 03:16:17 AM -36.0700 147.2490 54° Northeast 494 568 34,300 1,000 Climbing FlightAware ADS-B
Tue 03:16:37 AM -36.0349 147.3029 54° Northeast 490 564 34,900 750 Climbing Aus ATC (RADAR)
Tue 03:16:57 AM -36.0120 147.3450 54° Northeast 495 570 34,800 764 Descending FlightAware ADS-B
Tue 03:17:32 AM -35.9599 147.4272 54° Northeast 490 564 35,600 800 Climbing Aus ATC (RADAR)
Tue 03:17:42 AM -35.9550 147.4390 54° Northeast 490 564 35,400 857 Descending FlightAware ADS-B
Tue 03:18:07 AM -35.9125 147.5057 54° Northeast 488 562 36,100 600 Climbing Aus ATC (RADAR)
Tue 03:18:22 AM -35.9020 147.5270 54° Northeast 491 565 35,800 240 Descending FlightAware ADS-B
Tue 03:18:57 AM -35.8446 147.6178 54° Northeast 490 564 36,300 686 Climbing Aus ATC (RADAR)
Tue 03:19:32 AM -35.7964 147.6971 53° Northeast 492 566 36,600 369 Climbing Aus ATC (RADAR)
Tue 03:20:02 AM -35.7590 147.7610 53° Northeast 490 564 36,700 696 Climbing FlightAware ADS-B
Tue 03:20:41 AM -35.7036 147.8545 53° Northeast 484 557 37,400 257 Climbing Aus ATC (RADAR)
Tue 03:21:12 AM -35.6720 147.9220 53° Northeast 490 564 37,000 -109 Descending FlightAware ADS-B
Tue 03:21:36 AM -35.6388 147.9853 53° Northeast 484 557 37,300 333 Climbing Aus ATC (RADAR)
Tue 03:22:06 AM -35.6031 148.0561 58° Northeast 484 557 37,300  Level Aus ATC (RADAR)
Tue 03:22:31 AM -35.5730 148.1147 58° Northeast 484 557 37,300 -692 Level Aus ATC (RADAR)
Tue 03:22:32 AM -35.5760 148.1120 58° Northeast 488 562 37,000  Descending FlightAware ADS-B
Tue 03:23:06 AM -35.5315 148.1971 58° Northeast 483 556 37,300  Climbing Aus ATC (RADAR)
Tue 03:23:42 AM -35.4920 148.2760 58° Northeast 488 562 37,000 80 Descending FlightAware ADS-B
Tue 03:24:21 AM -35.4415 148.3727 58° Northeast 483 556 37,400  Climbing Aus ATC (RADAR)
Tue 03:24:57 AM -35.4010 148.4530 58° Northeast 489 563 37,000  Descending FlightAware ADS-B
Tue 03:25:36 AM -35.3514 148.5486 58° Northeast 484 557 37,400  Climbing Aus ATC (RADAR)
Tue 03:26:07 AM -35.3170 148.6170 58° Northeast 490 564 37,000  Descending FlightAware ADS-B
Tue 03:27:06 AM -35.2423 148.7597 58° Northeast 486 559 37,400  Climbing Aus ATC (RADAR)
Tue 03:27:17 AM -35.2320 148.7800 58° Northeast 487 560 37,000  Descending FlightAware ADS-B
Tue 03:28:06 AM -35.1692 148.8998 58° Northeast 485 558 37,400  Climbing Aus ATC (RADAR)
Tue 03:28:32 AM -35.1420 148.9540 58° Northeast 487 560 37,000  Descending FlightAware ADS-B
Tue 03:28:56 AM -35.1084 149.0165 58° Northeast 483 556 37,400  Climbing Aus ATC (RADAR)
Tue 03:29:27 AM -35.0740 149.0840 57° Northeast 487 560 37,000  Descending FlightAware ADS-B
Tue 03:29:31 AM -35.0656 149.0985 57° Northeast 485 558 37,400  Climbing Aus ATC (RADAR)
Tue 03:30:17 AM -35.0120 149.2010 57° Northeast 490 564 37,000  Descending FlightAware ADS-B
Tue 03:30:41 AM -34.9800 149.2615 57° Northeast 484 557 37,400  Climbing Aus ATC (RADAR)
Tue 03:30:57 AM -34.9640 149.2940 57° Northeast 490 564 37,000  Descending FlightAware ADS-B
Tue 03:31:15 AM -34.9373 149.3425 57° Northeast 482 555 37,400  Climbing Aus ATC (RADAR)
Tue 03:31:42 AM -34.9070 149.4020 57° Northeast 490 564 37,000  Descending FlightAware ADS-B
Tue 03:32:15 AM -34.8634 149.4824 57° Northeast 482 555 37,400  Climbing Aus ATC (RADAR)
Tue 03:32:22 AM -34.8590 149.4920 57° Northeast 490 564 37,000 -462 Descending FlightAware ADS-B
Tue 03:33:07 AM -34.8090 149.5980 60° Northeast 490 564 37,000  Level FlightAware ADS-B
Tue 03:33:47 AM -34.7700 149.6990 65° Northeast 491 565 37,000  Level FlightAware ADS-B
Tue 03:34:27 AM -34.7290 149.8000 64° Northeast 492 566 37,000  Level FlightAware ADS-B
Tue 03:35:12 AM -34.6850 149.9120 64° Northeast 492 566 37,000 381 Level FlightAware ADS-B
Tue 03:35:30 AM -34.6648 149.9625 64° Northeast 484 557 37,400  Climbing Aus ATC (RADAR)
Tue 03:35:52 AM -34.6450 150.0130 64° Northeast 493 567 37,000 -358 Descending FlightAware ADS-B
Tue 03:36:37 AM -34.6020 150.1200 64° Northeast 492 566 37,000 353 Level FlightAware ADS-B
Tue 03:37:00 AM -34.5757 150.1862 64° Northeast 482 555 37,400  Climbing Aus ATC (RADAR)
Tue 03:37:17 AM -34.5640 150.2160 64° Northeast 492 566 37,000 -421 Descending FlightAware ADS-B
Tue 03:37:57 AM -34.5250 150.3140 64° Northeast 492 566 37,000 308 Level FlightAware ADS-B
Tue 03:38:35 AM -34.4813 150.4216 64° Northeast 483 556 37,400  Climbing Aus ATC (RADAR)
Tue 03:38:42 AM -34.4800 150.4250 64° Northeast 489 563 37,000  Descending FlightAware ADS-B
Tue 03:39:15 AM -34.4414 150.5205 64° Northeast 482 555 37,400  Climbing Aus ATC (RADAR)
Tue 03:39:22 AM -34.4390 150.5280 64° Northeast 491 565 37,000  Descending FlightAware ADS-B
Tue 03:39:50 AM -34.4063 150.6076 64° Northeast 484 557 37,400  Climbing Aus ATC (RADAR)
Tue 03:40:07 AM -34.3940 150.6370 64° Northeast 492 566 37,000  Descending FlightAware ADS-B
Tue 03:40:35 AM -34.3609 150.7194 64° Northeast 484 557 37,400  Climbing Aus ATC (RADAR)
Tue 03:40:47 AM -34.3530 150.7380 64° Northeast 492 566 37,000 -462 Descending FlightAware ADS-B
Tue 03:41:27 AM -34.3130 150.8370 64° Northeast 492 566 37,000  Level FlightAware ADS-B
Tue 03:42:12 AM -34.2670 150.9510 64° Northeast 492 566 37,000 353 Level FlightAware ADS-B
Tue 03:42:35 AM -34.2395 151.0173 64° Northeast 485 558 37,400  Climbing Aus ATC (RADAR)
Tue 03:42:52 AM -34.2260 151.0490 64° Northeast 492 566 37,000 -462 Descending FlightAware ADS-B
Tue 03:43:27 AM -34.1910 151.1340 64° Northeast 493 567 37,000 632 Level FlightAware ADS-B
Tue 03:43:30 AM -34.1832 151.1540 64° Northeast 485 558 37,400  Climbing Aus ATC (RADAR)
Tue 03:44:17 AM -34.1420 151.2540 64° Northeast 495 570 37,000  Descending FlightAware ADS-B
Tue 03:44:50 AM -34.1011 151.3527 64° Northeast 486 559 37,400  Climbing Aus ATC (RADAR)
Tue 03:44:57 AM -34.0980 151.3600 64° Northeast 495 570 37,000  Descending FlightAware ADS-B
Tue 03:45:34 AM -34.0545 151.4644 64° Northeast 486 559 37,400  Climbing Aus ATC (RADAR)
Tue 03:45:42 AM -34.0480 151.4800 64° Northeast 498 573 37,000  Descending FlightAware ADS-B
Tue 03:45:59 AM -34.0279 151.5254 64° Northeast 484 557 37,400  Climbing Aus ATC (RADAR)
Tue 03:46:22 AM -34.0040 151.5740 64° Northeast 496 571 37,000  Descending FlightAware ADS-B
Tue 03:46:39 AM -33.9810 151.6203 64° Northeast 485 558 37,400  Climbing Aus ATC (RADAR)
Tue 03:47:02 AM -33.9580 151.6680 64° Northeast 495 570 37,000  Descending FlightAware ADS-B
Tue 03:47:49 AM -33.9012 151.7874 64° Northeast 483 556 37,400  Climbing Aus ATC (RADAR)
Tue 03:48:02 AM -33.8950 151.8000 64° Northeast 495 570 37,000 -453 Descending FlightAware ADS-B
Tue 03:48:42 AM -33.8480 151.8980 60° Northeast 495 570 37,000  Level FlightAware ADS-B
Tue 03:49:22 AM -33.7980 152.0020 60° Northeast 495 570 37,000  Level FlightAware ADS-B
Tue 03:49:57 AM -33.7590 152.0830 60° Northeast 495 570 37,000 585 Level FlightAware ADS-B
Tue 03:50:03 AM -33.7470 152.1083 60° Northeast 495 570 37,400  Climbing Aus ATC (RADAR)
Tue 03:50:47 AM -33.7040 152.1970 60° Northeast 495 570 37,000  Descending FlightAware ADS-B
Tue 03:51:09 AM -33.6722 152.2636 60° Northeast 483 556 37,400  Climbing Aus ATC (RADAR)
Tue 03:51:32 AM -33.6550 152.2980 60° Northeast 494 568 37,000  Descending FlightAware ADS-B
Tue 03:51:48 AM -33.6265 152.3575 60° Northeast 494 568 37,400  Climbing Aus ATC (RADAR)
Tue 03:52:02 AM -33.6180 152.3750 60° Northeast 495 570 37,000 -545 Descending FlightAware ADS-B
Tue 03:52:32 AM -33.5850 152.4440 60° Northeast 496 571 37,000 358 Level FlightAware ADS-B
Tue 03:53:09 AM -33.5340 152.5484 60° Northeast 484 557 37,400  Climbing Aus ATC (RADAR)
Tue 03:53:17 AM -33.5300 152.5570 60° Northeast 497 572 37,000  Descending FlightAware ADS-B
Tue 03:53:49 AM -33.4874 152.6434 60° Northeast 484 557 37,400  Climbing Aus ATC (RADAR)
Tue 03:53:57 AM -33.4830 152.6530 60° Northeast 498 573 37,000  Descending FlightAware ADS-B
Tue 03:54:38 AM -33.4297 152.7618 60° Northeast 500 575 37,400  Climbing Aus ATC (RADAR)
Tue 03:54:42 AM -33.4310 152.7580 60° Northeast 500 575 37,000 -706 Descending FlightAware ADS-B
Tue 03:55:12 AM -33.3960 152.8310 60° Northeast 501 577 37,000 774 Level FlightAware ADS-B
Tue 03:55:13 AM -33.3883 152.8458 60° Northeast 485 558 37,400  Climbing Aus ATC (RADAR)
Tue 03:56:02 AM -33.3390 152.9460 59° Northeast 503 579 37,000  Descending FlightAware ADS-B
Tue 03:56:38 AM -33.2881 153.0496 59° Northeast 489 563 37,400  Climbing Aus ATC (RADAR)
Tue 03:57:02 AM -33.2680 153.0910 59° Northeast 504 580 37,000 -375 Descending FlightAware ADS-B
Tue 03:57:42 AM -33.2210 153.1850 59° Northeast 505 581 37,000 338 Level FlightAware ADS-B
Tue 03:58:13 AM -33.1755 153.2767 59° Northeast 487 560 37,400  Climbing Aus ATC (RADAR)
Tue 03:58:22 AM -33.1730 153.2830 59° Northeast 504 580 37,000  Descending FlightAware ADS-B
Tue 03:58:48 AM -33.1337 153.3606 59° Northeast 490 564 37,400  Climbing Aus ATC (RADAR)
Tue 03:59:07 AM -33.1200 153.3880 59° Northeast 505 581 37,000  Descending FlightAware ADS-B
Tue 03:59:38 AM -33.0738 153.4800 59° Northeast 490 564 37,400  Climbing Aus ATC (RADAR)
Tue 03:59:47 AM -33.0690 153.4900 59° Northeast 506 582 37,000  Descending FlightAware ADS-B
Tue 04:00:13 AM -33.0322 153.5640 59° Northeast 490 564 37,400  Climbing Aus ATC (RADAR)
Tue 04:00:32 AM -33.0190 153.5910 59° Northeast 507 583 37,000  Descending FlightAware ADS-B
Tue 04:00:58 AM -32.9782 153.6714 59° Northeast 489 563 37,400  Climbing Aus ATC (RADAR)
Tue 04:01:02 AM -32.9770 153.6740 59° Northeast 507 583 37,000  Descending FlightAware ADS-B
Tue 04:01:28 AM -32.9419 153.7434 59° Northeast 491 565 37,400  Climbing Aus ATC (RADAR)
Tue 04:01:52 AM -32.9200 153.7860 59° Northeast 508 585 37,000 -348 Descending FlightAware ADS-B
Tue 04:02:37 AM -32.8650 153.8950 59° Northeast 510 587 37,000 364 Level FlightAware ADS-B
Tue 04:02:58 AM -32.8325 153.9594 59° Northeast 493 567 37,400  Climbing Aus ATC (RADAR)
Tue 04:03:17 AM -32.8150 153.9930 59° Northeast 512 589 37,000 -407 Descending FlightAware ADS-B
Tue 04:03:57 AM -32.7700 154.0840 60° Northeast 512 589 37,000  Level FlightAware ADS-B
Tue 04:04:32 AM -32.7220 154.1770 58° Northeast 512 589 37,000 471 Level FlightAware ADS-B
Tue 04:04:48 AM -32.6983 154.2235 58° Northeast 494 568 37,400 471 Climbing Aus ATC (RADAR)
Tue 04:05:23 AM -32.6553 154.3079 59° Northeast 494 568 37,400 -490 Level Aus ATC (RADAR)
Tue 04:05:37 AM -32.6450 154.3280 59° Northeast 512 589 37,000 -490 Descending FlightAware ADS-B
Tue 04:06:12 AM -32.6000 154.4150 59° Northeast 511 588 37,000 667 Level FlightAware ADS-B
Tue 04:06:13 AM -32.5939 154.4276 59° Northeast 494 568 37,400 923 Climbing Aus ATC (RADAR)
Tue 04:06:38 AM -32.5634 154.4873 59° Northeast 493 567 37,400 -490 Level Aus ATC (RADAR)
Tue 04:07:02 AM -32.5460 154.5210 59° Northeast 510 587 37,000  Descending FlightAware ADS-B
Tue 04:07:18 AM -32.5140 154.5827 59° Northeast 491 565 37,400  Climbing Aus ATC (RADAR)
Tue 04:07:37 AM -32.5000 154.6110 59° Northeast 509 586 37,000  Descending FlightAware ADS-B
Tue 04:08:18 AM -32.4402 154.7252 59° Northeast 491 565 37,400  Climbing Aus ATC (RADAR)
Tue 04:08:22 AM -32.4390 154.7280 59° Northeast 510 587 37,000 -490 Descending FlightAware ADS-B
Tue 04:09:07 AM -32.3870 154.8290 59° Northeast 510 587 37,000  Level FlightAware ADS-B
Tue 04:09:52 AM -32.3320 154.9340 58° Northeast 511 588 37,000 282 Level FlightAware ADS-B
Tue 04:10:32 AM -32.2731 155.0463 58° Northeast 496 571 37,400  Climbing Aus ATC (RADAR)
Tue 04:10:42 AM -32.2750 155.0440 58° Northeast 511 588 37,000  Descending FlightAware ADS-B
Tue 04:11:22 AM -32.2114 155.1653 58° Northeast 507 583 37,400  Climbing Aus ATC (RADAR)
Tue 04:11:27 AM -32.2240 155.1400 58° Northeast 511 588 37,000  Descending FlightAware ADS-B
Tue 04:11:47 AM -32.1803 155.2244 58° Northeast 507 583 37,400  Climbing Aus ATC (RADAR)
Tue 04:12:07 AM -32.1650 155.2540 58° Northeast 510 587 37,000  Descending FlightAware ADS-B
Tue 04:12:22 AM -32.1362 155.3073 58° Northeast 492 566 37,400  Climbing Aus ATC (RADAR)
Tue 04:12:47 AM -32.1220 155.3350 58° Northeast 510 587 37,000  Descending FlightAware ADS-B
Tue 04:13:12 AM -32.0719 155.4250 58° Northeast 494 568 37,400  Climbing Aus ATC (RADAR)
Tue 04:13:32 AM -32.0590 155.4560 58° Northeast 508 585 37,000 -400 Descending FlightAware ADS-B
Tue 04:14:12 AM -32.0100 155.5480 58° Northeast 507 583 37,000 545 Level FlightAware ADS-B
Tue 04:14:16 AM -31.9946 155.5773 58° Northeast 503 579 37,400  Climbing Aus ATC (RADAR)
Tue 04:14:52 AM -31.9680 155.6280 58° Northeast 507 583 37,000  Descending FlightAware ADS-B
Tue 04:15:32 AM -31.8989 155.7527 58° Northeast 486 559 37,400  Climbing Aus ATC (RADAR)
Tue 04:15:42 AM -31.9150 155.7270 58° Northeast 507 583 37,000 -480 Descending FlightAware ADS-B
Tue 04:16:22 AM -31.8730 155.8070 58° Northeast 507 583 37,000  Level FlightAware ADS-B
Tue 04:16:47 AM -31.8053 155.9285 58° Northeast 485 558 37,000  Level Aus ATC (RADAR)
Tue 04:17:02 AM -31.8310 155.8870 58° Northeast 507 583 37,000 706 Level FlightAware ADS-B
Tue 04:17:21 AM -31.7634 156.0108 58° Northeast 509 586 37,400  Climbing Aus ATC (RADAR)
Tue 04:17:42 AM -31.7880 155.9660 58° Northeast 507 583 37,000  Descending FlightAware ADS-B
Tue 04:18:11 AM -31.7021 156.1257 58° Northeast 455 524 37,400  Climbing Aus ATC (RADAR)
Tue 04:18:32 AM -31.7360 156.0660 58° Northeast 507 583 37,000 -393 Descending FlightAware ADS-B
Tue 04:19:12 AM -31.6930 156.1450 57° Northeast 507 583 37,000  Level FlightAware ADS-B
Tue 04:19:52 AM -31.6510 156.2240 58° Northeast 507 583 37,000 304 Level FlightAware ADS-B
Tue 04:20:31 AM -31.5232 156.4566 58° Northeast 510 587 37,400  Climbing Aus ATC (RADAR)
Tue 04:20:32 AM -31.6090 156.3040 58° Northeast 507 583 37,000 -585 Descending FlightAware ADS-B
Tue 04:21:12 AM -31.5660 156.3830 57° Northeast 507 583 37,000 348 Level FlightAware ADS-B
Tue 04:21:41 AM -31.4362 156.6172 57° Northeast 503 579 37,400  Climbing Aus ATC (RADAR)
Tue 04:21:52 AM -31.5240 156.4630 57° Northeast 507 583 37,000  Descending FlightAware ADS-B
Tue 04:22:16 AM -31.3932 156.6966 57° Northeast 499 574 37,400  Climbing Aus ATC (RADAR)
Tue 04:22:42 AM -31.4710 156.5620 57° Northeast 507 583 37,000 -364 Descending FlightAware ADS-B
Tue 04:23:22 AM -31.4290 156.6410 58° Northeast 507 583 37,000  Level FlightAware ADS-B
Tue 04:25:00 AM -31.2701 156.8304 46° Northeast  Level Estimated
Tue 04:26:00 AM -31.1726 156.9460 45° Northeast  Level Estimated
Tue 04:27:00 AM -31.0751 157.0614 45° Northeast  Level Estimated
Tue 04:27:20 AM -31.0169 157.4075 54° Northeast 37,000  Level Aus ATC (Calculated)
Tue 04:27:52 AM -30.9689 157.4976 54° Northeast 37,000  Level Aus ATC (Calculated)
Tue 04:29:00 AM -30.8576 157.6273 45° Northeast  Level Estimated
Tue 04:30:00 AM -30.7594 157.7414 45° Northeast  Level Estimated
Tue 04:31:00 AM -30.6610 157.8554 45° Northeast  Level Estimated
Tue 04:32:00 AM -30.5625 157.9691 45° Northeast  Level Estimated
Tue 04:32:15 AM -30.6368 158.1161 54° Northeast 37,000  Level Aus ATC (Calculated)
Tue 04:32:15 AM -30.6368 158.1161 54° Northeast 37,000  Level Aus ATC (Calculated)
Tue 04:34:00 AM -30.4638 158.3142 45° Northeast  Level Estimated
Tue 04:35:00 AM -30.3648 158.4270 45° Northeast  Level Estimated
Tue 04:36:00 AM -30.2658 158.5397 45° Northeast  Level Estimated
Tue 04:37:00 AM -30.1666 158.6521 44° Northeast  Level Estimated
Tue 04:37:14 AM -30.2529 158.8191 53° Northeast 37,000  Level Aus ATC (Calculated)
Tue 04:39:00 AM -30.0770 159.0168 44° Northeast  Level Estimated
Tue 04:40:00 AM -29.9773 159.1284 44° Northeast  Level Estimated
Tue 04:41:00 AM -29.8775 159.2398 44° Northeast  Level Estimated
Tue 04:42:00 AM -29.7776 159.3509 44° Northeast  Level Estimated
Tue 04:42:14 AM -29.8456 159.5517 52° Northeast 37,000  Level Aus ATC (Calculated)
Tue 04:44:00 AM -29.6684 159.7470 44° Northeast  Level Estimated
Tue 04:45:00 AM -29.5679 159.8572 44° Northeast  Level Estimated
Tue 04:46:00 AM -29.4674 159.9672 44° Northeast  Level Estimated
Tue 04:47:00 AM -29.3668 160.0771 44° Northeast  Level Estimated
Tue 04:47:13 AM -29.4430 160.2629 51° Northeast 37,000  Level Aus ATC (Calculated)
Tue 04:49:00 AM -29.2629 160.4577 43° Northeast  Level Estimated
Tue 04:50:00 AM -29.1617 160.5667 43° Northeast  Level Estimated
Tue 04:50:57 AM -29.1445 160.7825 51° Northeast 37,000  Level Aus ATC (Calculated)
Tue 04:51:00 AM -29.0605 160.6754 43° Northeast  Level Estimated
Tue 04:52:00 AM -29.0379 160.8963 43° Northeast  Level Estimated
Tue 04:52:13 AM -29.0226 160.9927 51° Northeast 37,000  Level Aus ATC (Calculated)
Tue 04:52:55 AM -28.9488 161.1195 50° Northeast 37,000  Level Aus ATC (Calculated)
Tue 04:54:00 AM -28.8385 161.2362 43° Northeast  Level Estimated
Tue 04:55:00 AM -28.7365 161.3437 43° Northeast  Level Estimated
Tue 04:56:00 AM -28.6345 161.4510 43° Northeast  Level Estimated
Tue 04:57:00 AM -28.5324 161.5582 43° Northeast  Level Estimated
Tue 04:57:13 AM -28.6014 161.7114 50° Northeast 37,000  Level Aus ATC (Calculated)
Tue 04:58:05 AM -28.5534 161.7925 49° Northeast 37,000  Level Aus ATC (Calculated)
Tue 05:00:00 AM -28.3569 161.9965 42° Northeast  Level Estimated
Tue 05:01:00 AM -28.2542 162.1026 42° Northeast  Level Estimated
Tue 05:02:00 AM -28.1515 162.2085 42° Northeast  Level Estimated
Tue 05:02:07 AM -28.2374 162.3228 49° Northeast 37,000  Level Aus ATC (Calculated)
Tue 05:02:47 AM -28.1864 162.4077 48° Northeast 37,000  Level Aus ATC (Calculated)
Tue 05:03:13 AM -28.1418 162.4819 48° Northeast 37,000  Level Aus ATC (Calculated)
Tue 05:04:00 AM -28.0610 162.5359 42° Northeast  Level Estimated
Tue 05:05:00 AM -27.9577 162.6695 42° Northeast  Level Estimated
Tue 05:06:00 AM -27.8543 162.7744 42° Northeast  Level Estimated
Tue 05:07:00 AM -27.7509 162.8792 42° Northeast  Level Estimated
Tue 05:08:00 AM -27.6474 162.9837 42° Northeast  Level Estimated
Tue 05:09:00 AM -27.5439 163.0880 42° Northeast  Level Estimated
Tue 05:10:00 AM -27.4402 163.1921 42° Northeast  Level Estimated
Tue 05:11:00 AM -27.3365 163.2960 42° Northeast  Level Estimated
Tue 05:12:00 AM -27.2327 163.3997 42° Northeast  Level Estimated
Tue 05:13:00 AM -27.1289 163.5033 42° Northeast  Level Estimated
Tue 05:14:00 AM -27.0249 163.6066 42° Northeast  Level Estimated
Tue 05:15:00 AM -26.9209 163.7098 41° Northeast  Level Estimated
Tue 05:16:00 AM -26.8168 163.8127 41° Northeast  Level Estimated
Tue 05:17:00 AM -26.7126 163.9155 41° Northeast  Level Estimated
Tue 05:18:00 AM -26.6084 164.0181 41° Northeast  Level Estimated
Tue 05:19:00 AM -26.5040 164.1205 41° Northeast  Level Estimated
Tue 05:20:00 AM -26.3997 164.2227 41° Northeast  Level Estimated
Tue 05:21:00 AM -26.2952 164.3247 41° Northeast  Level Estimated
Tue 05:22:00 AM -26.1906 164.4265 41° Northeast  Level Estimated
Tue 05:23:00 AM -26.0860 164.5282 41° Northeast  Level Estimated
Tue 05:24:00 AM -25.9813 164.6297 41° Northeast  Level Estimated
Tue 05:25:00 AM -25.8766 164.7310 41° Northeast  Level Estimated
Tue 05:26:00 AM -25.7718 164.8321 41° Northeast  Level Estimated
Tue 05:27:00 AM -25.6669 164.9330 41° Northeast  Level Estimated
Tue 05:28:00 AM -25.5619 165.0338 41° Northeast  Level Estimated
Tue 05:29:00 AM -25.4569 165.1344 41° Northeast  Level Estimated
Tue 05:30:00 AM -25.3518 165.2348 41° Northeast  Level Estimated
Tue 05:31:00 AM -25.2466 165.3350 41° Northeast  Level Estimated
Tue 05:32:00 AM -25.1414 165.4351 41° Northeast  Level Estimated
Tue 05:33:00 AM -25.0361 165.5350 41° Northeast  Level Estimated
Tue 05:34:00 AM -24.9307 165.6347 41° Northeast  Level Estimated
Tue 05:35:00 AM -24.8253 165.7343 41° Northeast  Level Estimated
Tue 05:36:00 AM -24.7198 165.8336 41° Northeast  Level Estimated
Tue 05:37:00 AM -24.6142 165.9328 41° Northeast  Level Estimated
Tue 05:38:00 AM -24.5086 166.0319 40° Northeast  Level Estimated
Tue 05:39:00 AM -24.4029 166.1308 40° Northeast  Level Estimated
Tue 05:40:00 AM -24.2972 166.2295 40° Northeast  Level Estimated
Tue 05:41:00 AM -24.1913 166.3280 40° Northeast  Level Estimated
Tue 05:42:00 AM -24.0855 166.4264 40° Northeast  Level Estimated
Tue 05:43:00 AM -23.9795 166.5246 40° Northeast  Level Estimated
Tue 05:44:00 AM -23.8735 166.6227 40° Northeast  Level Estimated
Tue 05:45:00 AM -23.7674 166.7206 40° Northeast  Level Estimated
Tue 05:46:00 AM -23.6613 166.8183 40° Northeast  Level Estimated
Tue 05:46:52 AM -24.1770 167.2570 40° Northeast 494 568 37,000  Level FlightAware ADS-B
Tue 05:47:00 AM -23.5551 166.9159 40° Northeast  Level Estimated
Tue 05:47:37 AM -24.0990 167.3430 45° Northeast 493 567 37,000  Level FlightAware ADS-B
Tue 05:48:22 AM -24.0290 167.4200 45° Northeast 492 566 37,000  Level FlightAware ADS-B
Tue 05:49:02 AM -23.9630 167.4930 45° Northeast 493 567 37,000  Level FlightAware ADS-B
Tue 05:49:47 AM -23.8890 167.5730 45° Northeast 494 568 37,000  Level FlightAware ADS-B
Tue 05:50:27 AM -23.8250 167.6430 45° Northeast 495 570 37,000  Level FlightAware ADS-B
Tue 05:51:12 AM -23.7530 167.7220 45° Northeast 496 571 37,000  Level FlightAware ADS-B
Tue 05:51:52 AM -23.6870 167.7940 45° Northeast 495 570 37,000  Level FlightAware ADS-B
Tue 05:52:32 AM -23.6220 167.8650 45° Northeast 493 567 37,000  Level FlightAware ADS-B
Tue 05:53:17 AM -23.5510 167.9420 45° Northeast 493 567 37,000  Level FlightAware ADS-B
Tue 05:53:57 AM -23.4840 168.0140 45° Northeast 492 566 37,000  Level FlightAware ADS-B
Tue 05:54:42 AM -23.4130 168.0910 45° Northeast 492 566 37,000  Level FlightAware ADS-B
Tue 05:55:22 AM -23.3460 168.1620 44° Northeast 494 568 37,000  Level FlightAware ADS-B
Tue 05:56:02 AM -23.2830 168.2310 45° Northeast 493 567 37,000  Level FlightAware ADS-B
Tue 05:56:47 AM -23.2110 168.3080 45° Northeast 492 566 37,000  Level FlightAware ADS-B
Tue 05:57:27 AM -23.1460 168.3780 45° Northeast 492 566 37,000  Level FlightAware ADS-B
Tue 05:58:07 AM -23.0780 168.4520 45° Northeast 494 568 37,000  Level FlightAware ADS-B
Tue 05:58:52 AM -23.0050 168.5290 44° Northeast 495 570 37,000  Level FlightAware ADS-B
Tue 05:59:37 AM -22.9310 168.6090 45° Northeast 496 571 37,000  Level FlightAware ADS-B
Tue 06:00:17 AM -22.8670 168.6770 44° Northeast 496 571 37,000  Level FlightAware ADS-B
Tue 06:00:57 AM -22.8020 168.7470 45° Northeast 497 572 37,000  Level FlightAware ADS-B
Tue 06:01:42 AM -22.7280 168.8260 45° Northeast 494 568 37,000  Level FlightAware ADS-B
Tue 06:02:22 AM -22.6630 168.8940 44° Northeast 492 566 37,000  Level FlightAware ADS-B
Tue 06:03:02 AM -22.5970 168.9650 45° Northeast 492 566 37,000  Level FlightAware ADS-B
Tue 06:03:47 AM -22.5230 169.0430 44° Northeast 492 566 37,000  Level FlightAware ADS-B
Tue 06:04:22 AM -22.4720 169.0970 44° Northeast 492 566 37,000  Level FlightAware ADS-B
Tue 06:05:12 AM -22.4020 169.1700 44° Northeast 492 566 37,000  Level FlightAware ADS-B
Tue 06:05:52 AM -22.3470 169.2280 44° Northeast 492 566 37,000  Level FlightAware ADS-B
Tue 06:06:32 AM -22.2910 169.2860 44° Northeast 492 566 37,000  Level FlightAware ADS-B
Tue 06:07:12 AM -22.2350 169.3440 44° Northeast 492 566 37,000  Level FlightAware ADS-B
Tue 06:07:52 AM -22.1800 169.4020 44° Northeast 492 566 37,000  Level FlightAware ADS-B
Tue 06:08:42 AM -22.1100 169.4740 44° Northeast 492 566 37,000  Level FlightAware ADS-B
Tue 06:09:22 AM -22.0540 169.5330 44° Northeast 492 566 37,000  Level FlightAware ADS-B
Tue 06:10:02 AM -21.9990 169.5900 44° Northeast 492 566 37,000  Level FlightAware ADS-B
Tue 06:10:42 AM -21.9430 169.6480 44° Northeast 492 566 37,000  Level FlightAware ADS-B
Tue 06:11:22 AM -21.8870 169.7060 44° Northeast 492 566 37,000  Level FlightAware ADS-B
Tue 06:12:12 AM -21.8180 169.7790 44° Northeast 492 566 37,000  Level FlightAware ADS-B
Tue 06:12:52 AM -21.7620 169.8370 44° Northeast 492 566 37,000  Level FlightAware ADS-B
Tue 06:13:32 AM -21.7060 169.8950 44° Northeast 492 566 37,000 Level FlightAware ADS-B
Tue 06:16:00 AM -21.4369 170.1228 38° Northeast  Level Estimated
Tue 06:17:00 AM -21.3278 170.2148 38° Northeast  Level Estimated
Tue 06:18:00 AM -21.2185 170.3068 38° Northeast  Level Estimated
Tue 06:19:00 AM -21.1093 170.3986 38° Northeast  Level Estimated
Tue 06:20:00 AM -21.0000 170.4903 38° Northeast  Level Estimated
Tue 06:21:00 AM -20.8906 170.5819 38° Northeast  Level Estimated
Tue 06:22:00 AM -20.7812 170.6733 38° Northeast  Level Estimated
Tue 06:23:00 AM -20.6717 170.7646 38° Northeast  Level Estimated
Tue 06:24:00 AM -20.5622 170.8557 38° Northeast  Level Estimated
Tue 06:25:00 AM -20.4526 170.9467 38° Northeast  Level Estimated
Tue 06:26:00 AM -20.3430 171.0376 38° Northeast  Level Estimated
Tue 06:27:00 AM -20.2334 171.1284 38° Northeast  Level Estimated
Tue 06:28:00 AM -20.1237 171.2190 38° Northeast  Level Estimated
Tue 06:29:00 AM -20.0139 171.3096 38° Northeast  Level Estimated
Tue 06:30:00 AM -19.9041 171.3999 38° Northeast  Level Estimated
Tue 06:31:00 AM -19.7943 171.4902 38° Northeast  Level Estimated
Tue 06:32:00 AM -19.6844 171.5803 38° Northeast  Level Estimated
Tue 06:33:00 AM -19.5745 171.6703 38° Northeast  Level Estimated
Tue 06:34:00 AM -19.4645 171.7602 38° Northeast  Level Estimated
Tue 06:35:00 AM -19.3545 171.8500 38° Northeast  Level Estimated
Tue 06:36:00 AM -19.2444 171.9396 38° Northeast  Level Estimated
Tue 06:37:00 AM -19.1343 172.0291 38° Northeast  Level Estimated
Tue 06:38:00 AM -19.0242 172.1185 38° Northeast  Level Estimated
Tue 06:39:00 AM -18.9140 172.2078 37° Northeast  Level Estimated
Tue 06:40:00 AM -18.8037 172.2970 37° Northeast  Level Estimated
Tue 06:41:00 AM -18.6935 172.3861 37° Northeast  Level Estimated
Tue 06:42:00 AM -18.5831 172.4750 37° Northeast  Level Estimated
Tue 06:43:00 AM -18.4728 172.5638 37° Northeast  Level Estimated
Tue 06:44:00 AM -18.3624 172.6525 37° Northeast  Level Estimated
Tue 06:45:00 AM -18.2519 172.7411 37° Northeast  Level Estimated
Tue 06:46:00 AM -18.1415 172.8296 37° Northeast  Level Estimated
Tue 06:47:00 AM -18.0309 172.9180 37° Northeast  Level Estimated
Tue 06:48:00 AM -17.9204 173.0062 37° Northeast  Level Estimated
Tue 06:49:00 AM -17.8098 173.0944 37° Northeast  Level Estimated
Tue 06:50:00 AM -17.6991 173.1824 37° Northeast  Level Estimated
Tue 06:51:00 AM -17.5885 173.2704 37° Northeast  Level Estimated
Tue 06:52:00 AM -17.4777 173.3582 37° Northeast  Level Estimated
Tue 06:53:00 AM -17.3670 173.4459 37° Northeast  Level Estimated
Tue 06:54:00 AM -17.2562 173.5335 37° Northeast  Level Estimated
Tue 06:55:00 AM -17.1453 173.6210 37° Northeast  Level Estimated
Tue 06:56:00 AM -17.0345 173.7084 37° Northeast  Level Estimated
Tue 06:57:00 AM -16.9236 173.7957 37° Northeast  Level Estimated
Tue 06:58:00 AM -16.8126 173.8829 37° Northeast  Level Estimated
Tue 06:59:00 AM -16.7016 173.9700 37° Northeast  Level Estimated
Tue 07:00:00 AM -16.5906 174.0570 37° Northeast  Level Estimated
Tue 07:01:00 AM -16.4795 174.1439 37° Northeast  Level Estimated
Tue 07:02:00 AM -16.3685 174.2307 37° Northeast  Level Estimated
Tue 07:03:00 AM -16.2573 174.3173 37° Northeast  Level Estimated
Tue 07:04:00 AM -16.1462 174.4039 37° Northeast  Level Estimated
Tue 07:05:00 AM -16.0350 174.4904 37° Northeast  Level Estimated
Tue 07:06:00 AM -15.9237 174.5768 37° Northeast  Level Estimated
Tue 07:07:00 AM -15.8125 174.6631 37° Northeast  Level Estimated
Tue 07:08:00 AM -15.7012 174.7493 37° Northeast  Level Estimated
Tue 07:09:00 AM -15.5898 174.8355 37° Northeast  Level Estimated
Tue 07:10:00 AM -15.4785 174.9215 37° Northeast  Level Estimated
Tue 07:11:00 AM -15.3671 175.0074 37° Northeast  Level Estimated
Tue 07:12:00 AM -15.2556 175.0932 37° Northeast  Level Estimated
Tue 07:13:00 AM -15.1442 175.1790 37° Northeast  Level Estimated
Tue 07:14:00 AM -15.0327 175.2647 37° Northeast  Level Estimated
Tue 07:15:00 AM -14.9211 175.3502 37° Northeast  Level Estimated
Tue 07:16:00 AM -14.8096 175.4357 37° Northeast  Level Estimated
Tue 07:17:00 AM -14.6980 175.5211 37° Northeast  Level Estimated
Tue 07:18:00 AM -14.5864 175.6064 36° Northeast  Level Estimated
Tue 07:19:00 AM -14.4747 175.6916 36° Northeast  Level Estimated
Tue 07:20:00 AM -14.3630 175.7767 36° Northeast  Level Estimated
Tue 07:21:00 AM -14.2513 175.8618 36° Northeast  Level Estimated
Tue 07:22:00 AM -14.1395 175.9468 36° Northeast  Level Estimated
Tue 07:23:00 AM -14.0278 176.0316 36° Northeast  Level Estimated
Tue 07:24:00 AM -13.9159 176.1164 36° Northeast  Level Estimated
Tue 07:25:00 AM -13.8041 176.2012 36° Northeast  Level Estimated
Tue 07:26:00 AM -13.6922 176.2858 36° Northeast  Level Estimated
Tue 07:27:00 AM -13.5803 176.3703 36° Northeast  Level Estimated
Tue 07:28:00 AM -13.4684 176.4548 36° Northeast  Level Estimated
Tue 07:29:00 AM -13.3565 176.5392 36° Northeast  Level Estimated
Tue 07:30:00 AM -13.2445 176.6235 36° Northeast  Level Estimated
Tue 07:31:00 AM -13.1325 176.7077 36° Northeast  Level Estimated
Tue 07:32:00 AM -13.0204 176.7919 36° Northeast  Level Estimated
Tue 07:33:00 AM -12.9084 176.8760 36° Northeast  Level Estimated
Tue 07:34:00 AM -12.7963 176.9600 36° Northeast  Level Estimated
Tue 07:35:00 AM -12.6842 177.0439 36° Northeast  Level Estimated
Tue 07:36:00 AM -12.5721 177.1278 36° Northeast  Level Estimated
Tue 07:37:00 AM -12.4599 177.2116 36° Northeast  Level Estimated
Tue 07:38:00 AM -12.3477 177.2953 36° Northeast  Level Estimated
Tue 07:39:00 AM -12.2355 177.3789 36° Northeast  Level Estimated
Tue 07:40:00 AM -12.1232 177.4625 36° Northeast  Level Estimated
Tue 07:41:00 AM -12.0110 177.5460 36° Northeast  Level Estimated
Tue 07:42:00 AM -11.8987 177.6294 36° Northeast  Level Estimated
Tue 07:43:00 AM -11.7864 177.7128 36° Northeast  Level Estimated
Tue 07:44:00 AM -11.6740 177.7961 36° Northeast  Level Estimated
Tue 07:45:00 AM -11.5616 177.8793 36° Northeast  Level Estimated
Tue 07:46:00 AM -11.4493 177.9625 36° Northeast  Level Estimated
Tue 07:47:00 AM -11.3368 178.0455 36° Northeast  Level Estimated
Tue 07:48:00 AM -11.2244 178.1286 36° Northeast  Level Estimated
Tue 07:49:00 AM -11.1119 178.2115 36° Northeast  Level Estimated
Tue 07:50:00 AM -10.9995 178.2944 36° Northeast  Level Estimated
Tue 07:51:00 AM -10.8870 178.3773 36° Northeast  Level Estimated
Tue 07:52:00 AM -10.7744 178.4601 36° Northeast  Level Estimated
Tue 07:53:00 AM -10.6619 178.5428 36° Northeast  Level Estimated
Tue 07:54:00 AM -10.5493 178.6254 36° Northeast  Level Estimated
Tue 07:55:00 AM -10.4367 178.7080 36° Northeast  Level Estimated
Tue 07:56:00 AM -10.3241 178.7905 36° Northeast  Level Estimated
Tue 07:57:00 AM -10.2115 178.8730 36° Northeast  Level Estimated
Tue 07:58:00 AM -10.0988 178.9554 36° Northeast  Level Estimated
Tue 07:59:00 AM -9.9939 179.0321 36° Northeast  Level Estimated
Tue 08:00:00 AM -9.8890 179.1088 36° Northeast  Level Estimated
Tue 08:01:00 AM -9.7840 179.1854 36° Northeast  Level Estimated
Tue 08:02:00 AM -9.6790 179.2619 36° Northeast  Level Estimated
Tue 08:03:00 AM -9.5740 179.3384 36° Northeast  Level Estimated
Tue 08:04:00 AM -9.4690 179.4149 36° Northeast  Level Estimated
Tue 08:05:00 AM -9.3639 179.4913 36° Northeast  Level Estimated
Tue 08:06:00 AM -9.2589 179.5677 36° Northeast  Level Estimated
Tue 08:07:00 AM -9.1538 179.6440 36° Northeast  Level Estimated
Tue 08:08:00 AM -9.0487 179.7203 36° Northeast  Level Estimated
Tue 08:09:00 AM -8.9436 179.7965 36° Northeast  Level Estimated
Tue 08:10:00 AM -8.8385 179.8727 36° Northeast  Level Estimated
Tue 08:11:00 AM -8.7334 179.9488 36° Northeast  Level Estimated
Tue 08:12:00 AM -8.6282 -179.9751 36° Northeast  Level Estimated
Tue 08:13:00 AM -8.5231 -179.8990 36° Northeast  Level Estimated
Tue 08:14:00 AM -8.4179 -179.8230 36° Northeast  Level Estimated
Tue 08:15:00 AM -8.3127 -179.7470 36° Northeast  Level Estimated
Tue 08:16:00 AM -8.2075 -179.6711 36° Northeast  Level Estimated
Tue 08:17:00 AM -8.1023 -179.5952 36° Northeast  Level Estimated
Tue 08:18:00 AM -7.9970 -179.5193 36° Northeast  Level Estimated
Tue 08:19:00 AM -7.8918 -179.4435 36° Northeast  Level Estimated
Tue 08:20:00 AM -7.7865 -179.3678 36° Northeast  Level Estimated
Tue 08:21:00 AM -7.6812 -179.2920 35° Northeast  Level Estimated
Tue 08:22:00 AM -7.5760 -179.2163 35° Northeast  Level Estimated
Tue 08:23:00 AM -7.4707 -179.1407 35° Northeast  Level Estimated
Tue 08:24:00 AM -7.3653 -179.0650 35° Northeast  Level Estimated
Tue 08:25:00 AM -7.2600 -178.9894 35° Northeast  Level Estimated
Tue 08:26:00 AM -7.1547 -178.9139 35° Northeast  Level Estimated
Tue 08:27:00 AM -7.0493 -178.8383 35° Northeast  Level Estimated
Tue 08:28:00 AM -6.9440 -178.7629 35° Northeast  Level Estimated
Tue 08:29:00 AM -6.8386 -178.6874 35° Northeast  Level Estimated
Tue 08:30:00 AM -6.7332 -178.6120 35° Northeast  Level Estimated
Tue 08:31:00 AM -6.6278 -178.5366 35° Northeast  Level Estimated
Tue 08:32:00 AM -6.5224 -178.4612 35° Northeast  Level Estimated
Tue 08:33:00 AM -6.4170 -178.3859 35° Northeast  Level Estimated
Tue 08:34:00 AM -6.3115 -178.3106 35° Northeast  Level Estimated
Tue 08:35:00 AM -6.2061 -178.2354 35° Northeast  Level Estimated
Tue 08:36:00 AM -6.1006 -178.1602 35° Northeast  Level Estimated
Tue 08:37:00 AM -5.9952 -178.0849 35° Northeast  Level Estimated
Tue 08:38:00 AM -5.8897 -178.0098 35° Northeast  Level Estimated
Tue 08:39:00 AM -5.7842 -177.9346 35° Northeast  Level Estimated
Tue 08:40:00 AM -5.6787 -177.8595 35° Northeast  Level Estimated
Tue 08:41:00 AM -5.5732 -177.7844 35° Northeast  Level Estimated
Tue 08:42:00 AM -5.4677 -177.7094 35° Northeast  Level Estimated
Tue 08:43:00 AM -5.3622 -177.6343 35° Northeast  Level Estimated
Tue 08:44:00 AM -5.2567 -177.5593 35° Northeast  Level Estimated
Tue 08:45:00 AM -5.1511 -177.4843 35° Northeast  Level Estimated
Tue 08:46:00 AM -5.0456 -177.4094 35° Northeast  Level Estimated
Tue 08:47:00 AM -4.9400 -177.3345 35° Northeast  Level Estimated
Tue 08:48:00 AM -4.8345 -177.2595 35° Northeast  Level Estimated
Tue 08:49:00 AM -4.7289 -177.1846 35° Northeast  Level Estimated
Tue 08:50:00 AM -4.6233 -177.1098 35° Northeast  Level Estimated
Tue 08:51:00 AM -4.5177 -177.0349 35° Northeast  Level Estimated
Tue 08:52:00 AM -4.4121 -176.9601 35° Northeast  Level Estimated
Tue 08:53:00 AM -4.3065 -176.8853 35° Northeast  Level Estimated
Tue 08:54:00 AM -4.2009 -176.8105 35° Northeast  Level Estimated
Tue 08:55:00 AM -4.0953 -176.7358 35° Northeast  Level Estimated
Tue 08:56:00 AM -3.9896 -176.6611 35° Northeast  Level Estimated
Tue 08:57:00 AM -3.8840 -176.5863 35° Northeast  Level Estimated
Tue 08:58:00 AM -3.7784 -176.5116 35° Northeast  Level Estimated
Tue 08:59:00 AM -3.6727 -176.4370 35° Northeast  Level Estimated
Tue 09:00:00 AM -3.5671 -176.3623 35° Northeast  Level Estimated
Tue 09:01:00 AM -3.4614 -176.2876 35° Northeast  Level Estimated
Tue 09:02:00 AM -3.3557 -176.2130 35° Northeast  Level Estimated
Tue 09:03:00 AM -3.2501 -176.1384 35° Northeast  Level Estimated
Tue 09:04:00 AM -3.1444 -176.0638 35° Northeast  Level Estimated
Tue 09:05:00 AM -3.0387 -175.9892 35° Northeast  Level Estimated
Tue 09:06:00 AM -2.9330 -175.9147 35° Northeast  Level Estimated
Tue 09:07:00 AM -2.8273 -175.8401 35° Northeast  Level Estimated
Tue 09:08:00 AM -2.7216 -175.7655 35° Northeast  Level Estimated
Tue 09:09:00 AM -2.6159 -175.6910 35° Northeast  Level Estimated
Tue 09:10:00 AM -2.5102 -175.6165 35° Northeast  Level Estimated
Tue 09:11:00 AM -2.4045 -175.5420 35° Northeast  Level Estimated
Tue 09:12:00 AM -2.2988 -175.4675 35° Northeast  Level Estimated
Tue 09:13:00 AM -2.1931 -175.3930 35° Northeast  Level Estimated
Tue 09:14:00 AM -2.0874 -175.3186 35° Northeast  Level Estimated
Tue 09:15:00 AM -1.9816 -175.2441 35° Northeast  Level Estimated
Tue 09:16:00 AM -1.8759 -175.1696 35° Northeast  Level Estimated
Tue 09:17:00 AM -1.7702 -175.0952 35° Northeast  Level Estimated
Tue 09:18:00 AM -1.6644 -175.0208 35° Northeast  Level Estimated
Tue 09:19:00 AM -1.5587 -174.9464 35° Northeast  Level Estimated
Tue 09:20:00 AM -1.4530 -174.8719 35° Northeast  Level Estimated
Tue 09:21:00 AM -1.3472 -174.7975 35° Northeast  Level Estimated
Tue 09:22:00 AM -1.2415 -174.7231 35° Northeast  Level Estimated
Tue 09:23:00 AM -1.1357 -174.6487 35° Northeast  Level Estimated
Tue 09:24:00 AM -1.0300 -174.5743 35° Northeast  Level Estimated
Tue 09:25:00 AM -0.9242 -174.4999 35° Northeast  Level Estimated
Tue 09:26:00 AM -0.8185 -174.4256 35° Northeast  Level Estimated
Tue 09:27:00 AM -0.7127 -174.3512 35° Northeast  Level Estimated
Tue 09:28:00 AM -0.6070 -174.2768 35° Northeast  Level Estimated
Tue 09:29:00 AM -0.5012 -174.2024 35° Northeast  Level Estimated
Tue 09:30:00 AM -0.3954 -174.1281 35° Northeast  Level Estimated
Tue 09:31:00 AM -0.2897 -174.0537 35° Northeast  Level Estimated
Tue 09:32:00 AM -0.1839 -173.9793 35° Northeast  Level Estimated
Tue 09:33:00 AM -0.0782 -173.9050 35° Northeast  Level Estimated
Tue 09:34:00 AM 0.0276 -173.8306 35° Northeast  Level Estimated
Tue 09:35:00 AM 0.1333 -173.7562 35° Northeast  Level Estimated
Tue 09:36:00 AM 0.2391 -173.6818 35° Northeast  Level Estimated
Tue 09:37:00 AM 0.3449 -173.6075 35° Northeast  Level Estimated
Tue 09:38:00 AM 0.4506 -173.5331 35° Northeast  Level Estimated
Tue 09:39:00 AM 0.5564 -173.4587 35° Northeast  Level Estimated
Tue 09:40:00 AM 0.6622 -173.3844 35° Northeast  Level Estimated
Tue 09:41:00 AM 0.7679 -173.3100 35° Northeast  Level Estimated
Tue 09:42:00 AM 0.8737 -173.2356 35° Northeast  Level Estimated
Tue 09:43:00 AM 0.9794 -173.1612 35° Northeast  Level Estimated
Tue 09:44:00 AM 1.0852 -173.0868 35° Northeast  Level Estimated
Tue 09:45:00 AM 1.1909 -173.0124 35° Northeast  Level Estimated
Tue 09:46:00 AM 1.2967 -172.9380 35° Northeast  Level Estimated
Tue 09:47:00 AM 1.4024 -172.8636 35° Northeast  Level Estimated
Tue 09:48:00 AM 1.5081 -172.7892 35° Northeast  Level Estimated
Tue 09:49:00 AM 1.6139 -172.7148 35° Northeast  Level Estimated
Tue 09:50:00 AM 1.7196 -172.6403 35° Northeast  Level Estimated
Tue 09:51:00 AM 1.8253 -172.5659 35° Northeast  Level Estimated
Tue 09:52:00 AM 1.9311 -172.4915 35° Northeast  Level Estimated
Tue 09:53:00 AM 2.0368 -172.4170 35° Northeast  Level Estimated
Tue 09:54:00 AM 2.1425 -172.3425 35° Northeast  Level Estimated
Tue 09:55:00 AM 2.2482 -172.2680 35° Northeast  Level Estimated
Tue 09:56:00 AM 2.3540 -172.1935 35° Northeast  Level Estimated
Tue 09:57:00 AM 2.4597 -172.1190 35° Northeast  Level Estimated
Tue 09:58:00 AM 2.5654 -172.0445 35° Northeast  Level Estimated
Tue 09:59:00 AM 2.6711 -171.9700 35° Northeast  Level Estimated
Tue 10:00:00 AM 2.7768 -171.8955 35° Northeast  Level Estimated
Tue 10:01:00 AM 2.8825 -171.8209 35° Northeast  Level Estimated
Tue 10:02:00 AM 2.9882 -171.7464 35° Northeast  Level Estimated
Tue 10:03:00 AM 3.0938 -171.6718 35° Northeast  Level Estimated
Tue 10:04:00 AM 3.1995 -171.5972 35° Northeast  Level Estimated
Tue 10:05:00 AM 3.3052 -171.5226 35° Northeast  Level Estimated
Tue 10:06:00 AM 3.4109 -171.4480 35° Northeast  Level Estimated
Tue 10:07:00 AM 3.5165 -171.3733 35° Northeast  Level Estimated
Tue 10:08:00 AM 3.6222 -171.2987 35° Northeast  Level Estimated
Tue 10:09:00 AM 3.7278 -171.2240 35° Northeast  Level Estimated
Tue 10:10:00 AM 3.8335 -171.1493 35° Northeast  Level Estimated
Tue 10:11:00 AM 3.9391 -171.0746 35° Northeast  Level Estimated
Tue 10:12:00 AM 4.0447 -170.9999 35° Northeast  Level Estimated
Tue 10:13:00 AM 4.1504 -170.9251 35° Northeast  Level Estimated
Tue 10:14:00 AM 4.2560 -170.8504 35° Northeast  Level Estimated
Tue 10:15:00 AM 4.3616 -170.7756 35° Northeast  Level Estimated
Tue 10:16:00 AM 4.4672 -170.7007 35° Northeast  Level Estimated
Tue 10:17:00 AM 4.5728 -170.6259 35° Northeast  Level Estimated
Tue 10:18:00 AM 4.6784 -170.5511 35° Northeast  Level Estimated
Tue 10:19:00 AM 4.7840 -170.4762 35° Northeast  Level Estimated
Tue 10:20:00 AM 4.8895 -170.4013 35° Northeast  Level Estimated
Tue 10:21:00 AM 4.9951 -170.3264 35° Northeast  Level Estimated
Tue 10:22:00 AM 5.1006 -170.2514 35° Northeast  Level Estimated
Tue 10:23:00 AM 5.2062 -170.1765 35° Northeast  Level Estimated
Tue 10:24:00 AM 5.3117 -170.1015 35° Northeast  Level Estimated
Tue 10:25:00 AM 5.4173 -170.0264 35° Northeast  Level Estimated
Tue 10:26:00 AM 5.5228 -169.9514 35° Northeast  Level Estimated
Tue 10:27:00 AM 5.6283 -169.8763 35° Northeast  Level Estimated
Tue 10:28:00 AM 5.7338 -169.8012 35° Northeast  Level Estimated
Tue 10:29:00 AM 5.8393 -169.7261 35° Northeast  Level Estimated
Tue 10:30:00 AM 5.9448 -169.6509 35° Northeast  Level Estimated
Tue 10:31:00 AM 6.0502 -169.5757 35° Northeast  Level Estimated
Tue 10:32:00 AM 6.1557 -169.5005 35° Northeast  Level Estimated
Tue 10:33:00 AM 6.2611 -169.4252 35° Northeast  Level Estimated
Tue 10:34:00 AM 6.3666 -169.3500 35° Northeast  Level Estimated
Tue 10:35:00 AM 6.4720 -169.2747 35° Northeast  Level Estimated
Tue 10:36:00 AM 6.5774 -169.1993 35° Northeast  Level Estimated
Tue 10:37:00 AM 6.6828 -169.1239 35° Northeast  Level Estimated
Tue 10:38:00 AM 6.7882 -169.0486 35° Northeast  Level Estimated
Tue 10:39:00 AM 6.8936 -168.9731 35° Northeast  Level Estimated
Tue 10:40:00 AM 6.9990 -168.8976 35° Northeast  Level Estimated
Tue 10:41:00 AM 7.1043 -168.8221 35° Northeast  Level Estimated
Tue 10:42:00 AM 7.2097 -168.7466 35° Northeast  Level Estimated
Tue 10:43:00 AM 7.3150 -168.6710 35° Northeast  Level Estimated
Tue 10:44:00 AM 7.4203 -168.5954 35° Northeast  Level Estimated
Tue 10:45:00 AM 7.5256 -168.5198 35° Northeast  Level Estimated
Tue 10:46:00 AM 7.6309 -168.4441 35° Northeast  Level Estimated
Tue 10:47:00 AM 7.7362 -168.3684 35° Northeast  Level Estimated
Tue 10:48:00 AM 7.8415 -168.2926 35° Northeast  Level Estimated
Tue 10:49:00 AM 7.9467 -168.2168 35° Northeast  Level Estimated
Tue 10:50:00 AM 8.0520 -168.1410 36° Northeast  Level Estimated
Tue 10:51:00 AM 8.1572 -168.0651 36° Northeast  Level Estimated
Tue 10:52:00 AM 8.2624 -167.9892 36° Northeast  Level Estimated
Tue 10:53:00 AM 8.3676 -167.9132 36° Northeast  Level Estimated
Tue 10:54:00 AM 8.4728 -167.8372 36° Northeast  Level Estimated
Tue 10:55:00 AM 8.5780 -167.7612 36° Northeast  Level Estimated
Tue 10:56:00 AM 8.6831 -167.6851 36° Northeast  Level Estimated
Tue 10:57:00 AM 8.7882 -167.6090 36° Northeast  Level Estimated
Tue 10:58:00 AM 8.8934 -167.5328 36° Northeast  Level Estimated
Tue 10:59:00 AM 8.9985 -167.4566 36° Northeast  Level Estimated
Tue 11:00:00 AM 9.1036 -167.3804 36° Northeast  Level Estimated
Tue 11:01:00 AM 9.2086 -167.3041 36° Northeast  Level Estimated
Tue 11:02:00 AM 9.3137 -167.2277 36° Northeast  Level Estimated
Tue 11:03:00 AM 9.4187 -167.1513 36° Northeast  Level Estimated
Tue 11:04:00 AM 9.5238 -167.0749 36° Northeast  Level Estimated
Tue 11:05:00 AM 9.6288 -166.9984 36° Northeast  Level Estimated
Tue 11:06:00 AM 9.7338 -166.9219 36° Northeast  Level Estimated
Tue 11:07:00 AM 9.8388 -166.8453 36° Northeast  Level Estimated
Tue 11:08:00 AM 9.9437 -166.7687 36° Northeast  Level Estimated
Tue 11:09:00 AM 10.0487 -166.6920 36° Northeast  Level Estimated
Tue 11:10:00 AM 10.1536 -166.6153 36° Northeast  Level Estimated
Tue 11:11:00 AM 10.2585 -166.5385 36° Northeast  Level Estimated
Tue 11:12:00 AM 10.3634 -166.4617 36° Northeast  Level Estimated
Tue 11:13:00 AM 10.4683 -166.3848 36° Northeast  Level Estimated
Tue 11:14:00 AM 10.5731 -166.3078 36° Northeast  Level Estimated
Tue 11:15:00 AM 10.6779 -166.2309 36° Northeast  Level Estimated
Tue 11:16:00 AM 10.7828 -166.1538 36° Northeast  Level Estimated
Tue 11:17:00 AM 10.8876 -166.0767 36° Northeast  Level Estimated
Tue 11:18:00 AM 10.9923 -165.9996 36° Northeast  Level Estimated
Tue 11:19:00 AM 11.0971 -165.9224 36° Northeast  Level Estimated
Tue 11:20:00 AM 11.2018 -165.8451 36° Northeast  Level Estimated
Tue 11:21:00 AM 11.3066 -165.7678 36° Northeast  Level Estimated
Tue 11:22:00 AM 11.4113 -165.6904 36° Northeast  Level Estimated
Tue 11:23:00 AM 11.5159 -165.6130 36° Northeast  Level Estimated
Tue 11:24:00 AM 11.6206 -165.5355 36° Northeast  Level Estimated
Tue 11:25:00 AM 11.7252 -165.4580 36° Northeast  Level Estimated
Tue 11:26:00 AM 11.8299 -165.3804 36° Northeast  Level Estimated
Tue 11:27:00 AM 11.9345 -165.3027 36° Northeast  Level Estimated
Tue 11:28:00 AM 12.0390 -165.2250 36° Northeast  Level Estimated
Tue 11:29:00 AM 12.1436 -165.1472 36° Northeast  Level Estimated
Tue 11:30:00 AM 12.2481 -165.0694 36° Northeast  Level Estimated
Tue 11:31:00 AM 12.3526 -164.9915 36° Northeast  Level Estimated
Tue 11:32:00 AM 12.4571 -164.9135 36° Northeast  Level Estimated
Tue 11:33:00 AM 12.5616 -164.8355 36° Northeast  Level Estimated
Tue 11:34:00 AM 12.6660 -164.7574 36° Northeast  Level Estimated
Tue 11:35:00 AM 12.7704 -164.6793 36° Northeast  Level Estimated
Tue 11:36:00 AM 12.8748 -164.6010 36° Northeast  Level Estimated
Tue 11:37:00 AM 12.9792 -164.5228 36° Northeast  Level Estimated
Tue 11:38:00 AM 13.0835 -164.4444 36° Northeast  Level Estimated
Tue 11:39:00 AM 13.1879 -164.3660 36° Northeast  Level Estimated
Tue 11:40:00 AM 13.2922 -164.2875 36° Northeast  Level Estimated
Tue 11:41:00 AM 13.3964 -164.2090 36° Northeast  Level Estimated
Tue 11:42:00 AM 13.5007 -164.1303 36° Northeast  Level Estimated
Tue 11:43:00 AM 13.6049 -164.0517 36° Northeast  Level Estimated
Tue 11:44:00 AM 13.7091 -163.9729 36° Northeast  Level Estimated
Tue 11:45:00 AM 13.8133 -163.8941 36° Northeast  Level Estimated
Tue 11:46:00 AM 13.9174 -163.8152 36° Northeast  Level Estimated
Tue 11:47:00 AM 14.0216 -163.7362 36° Northeast  Level Estimated
Tue 11:48:00 AM 14.1257 -163.6572 36° Northeast  Level Estimated
Tue 11:49:00 AM 14.2298 -163.5780 36° Northeast  Level Estimated
Tue 11:50:00 AM 14.3338 -163.4989 36° Northeast  Level Estimated
Tue 11:51:00 AM 14.4378 -163.4196 36° Northeast  Level Estimated
Tue 11:52:00 AM 14.5418 -163.3403 36° Northeast  Level Estimated
Tue 11:53:00 AM 14.6458 -163.2608 36° Northeast  Level Estimated
Tue 11:54:00 AM 14.7497 -163.1814 36° Northeast  Level Estimated
Tue 11:55:00 AM 14.8537 -163.1018 36° Northeast  Level Estimated
Tue 11:56:00 AM 14.9576 -163.0222 37° Northeast  Level Estimated
Tue 11:57:00 AM 15.0614 -162.9425 37° Northeast  Level Estimated
Tue 11:58:00 AM 15.1652 -162.8627 37° Northeast  Level Estimated
Tue 11:59:00 AM 15.2690 -162.7828 37° Northeast  Level Estimated
Tue 12:00:00 PM 15.3728 -162.7029 37° Northeast  Level Estimated
Tue 12:01:00 PM 15.4766 -162.6228 37° Northeast  Level Estimated
Tue 12:02:00 PM 15.5803 -162.5427 37° Northeast  Level Estimated
Tue 12:03:00 PM 15.6840 -162.4625 37° Northeast  Level Estimated
Tue 12:04:00 PM 15.7877 -162.3822 37° Northeast  Level Estimated
Tue 12:05:00 PM 15.8913 -162.3019 37° Northeast  Level Estimated
Tue 12:06:00 PM 15.9949 -162.2215 37° Northeast  Level Estimated
Tue 12:07:00 PM 16.0984 -162.1409 37° Northeast  Level Estimated
Tue 12:08:00 PM 16.2020 -162.0603 37° Northeast  Level Estimated
Tue 12:09:00 PM 16.3055 -161.9796 37° Northeast  Level Estimated
Tue 12:10:00 PM 16.4090 -161.8989 37° Northeast  Level Estimated
Tue 12:11:00 PM 16.5124 -161.8180 37° Northeast  Level Estimated
Tue 12:12:00 PM 16.6159 -161.7371 37° Northeast  Level Estimated
Tue 12:13:00 PM 16.7192 -161.6560 37° Northeast  Level Estimated
Tue 12:14:00 PM 16.8226 -161.5749 37° Northeast  Level Estimated
Tue 12:15:00 PM 16.9259 -161.4937 37° Northeast  Level Estimated
Tue 12:16:00 PM 17.0292 -161.4124 37° Northeast  Level Estimated
Tue 12:17:00 PM 17.1325 -161.3310 37° Northeast  Level Estimated
Tue 12:18:00 PM 17.2357 -161.2495 37° Northeast  Level Estimated
Tue 12:19:00 PM 17.3389 -161.1680 37° Northeast  Level Estimated
Tue 12:20:00 PM 17.4421 -161.0863 37° Northeast  Level Estimated
Tue 12:21:00 PM 17.5452 -161.0046 37° Northeast  Level Estimated
Tue 12:22:00 PM 17.6483 -160.9227 37° Northeast  Level Estimated
Tue 12:23:00 PM 17.7514 -160.8408 37° Northeast  Level Estimated
Tue 12:24:00 PM 17.8544 -160.7587 37° Northeast  Level Estimated
Tue 12:25:00 PM 17.9574 -160.6766 37° Northeast  Level Estimated
Tue 12:25:17 PM 18.6220 -159.8750 37° Northeast 450 518 39,000  Level FlightAware ADS-B
Tue 12:25:52 PM 18.6780 -159.8370 33° Northeast 450 518 39,000  Level FlightAware ADS-B
Tue 12:26:00 PM 18.0603 -160.5944 37° Northeast  Level Estimated
Tue 12:26:42 PM 18.7520 -159.7860 33° Northeast 450 518 39,000  Level FlightAware ADS-B
Tue 12:27:17 PM 18.8350 -159.7270 34° Northeast 449 517 39,000  Level FlightAware ADS-B
Tue 12:28:17 PM 18.9380 -159.6550 33° Northeast 449 517 39,000  Level FlightAware ADS-B
Tue 12:28:57 PM 19.0000 -159.6120 33° Northeast 450 518 39,000  Level FlightAware ADS-B
Tue 12:29:42 PM 19.0770 -159.5570 34° Northeast 451 519 39,000  Level FlightAware ADS-B
Tue 12:30:22 PM 19.1560 -159.5030 33° Northeast 452 520 39,000 -180 Level FlightAware ADS-B
Tue 12:31:22 PM 19.2590 -159.4310 33° Northeast 454 522 38,700 -189 Descending FlightAware ADS-B
Tue 12:31:57 PM 19.3130 -159.3920 34° Northeast 454 522 38,700 -1,600 Level FlightAware ADS-B
Tue 12:32:37 PM 19.3910 -159.3380 33° Northeast 456 525 36,700 -1,835 Descending FlightAware ADS-B
Tue 12:33:22 PM 19.4650 -159.2860 34° Northeast 454 522 36,100 -2,100 Descending FlightAware ADS-B
Tue 12:34:37 PM 19.5990 -159.1910 34° Northeast 447 514 32,500 -2,509 Descending FlightAware ADS-B
Tue 12:35:12 PM 19.6550 -159.1520 33° Northeast 456 525 31,500 -1,200 Descending FlightAware ADS-B
Tue 12:35:52 PM 19.7230 -159.1040 34° Northeast 453 521 31,000 -1,560 Descending FlightAware ADS-B
Tue 12:36:52 PM 19.8250 -159.0320 34° Northeast 434 499 28,900 -2,460 Descending FlightAware ADS-B
Tue 12:37:32 PM 19.8900 -158.9860 34° Northeast 434 499 26,900 -1,920 Descending FlightAware ADS-B
Tue 12:38:32 PM 19.9880 -158.9160 34° Northeast 409 471 25,700 -2,000 Descending FlightAware ADS-B
Tue 12:39:17 PM 20.0670 -158.8610 33° Northeast 404 465 23,400 -2,400 Descending FlightAware ADS-B
Tue 12:39:52 PM 20.1100 -158.8300 34° Northeast 399 459 22,500 -1,906 Descending FlightAware ADS-B
Tue 12:40:42 PM 20.1950 -158.7700 34° Northeast 391 450 20,700 -1,930 Descending FlightAware ADS-B
Tue 12:41:47 PM 20.2880 -158.7030 34° Northeast 390 449 18,800 -1,691 Descending FlightAware ADS-B
Tue 12:42:32 PM 20.3530 -158.6570 34° Northeast 372 428 17,600 -1,680 Descending FlightAware ADS-B
Tue 12:43:27 PM 20.4360 -158.5980 34° Northeast 360 414 16,000 -1,067 Descending FlightAware ADS-B
Tue 12:44:02 PM 20.4780 -158.5670 35° Northeast 360 414 16,000 -1,906 Level FlightAware ADS-B
Tue 12:44:52 PM 20.5500 -158.5160 34° Northeast 352 405 13,300 -2,400 Descending FlightAware ADS-B
Tue 12:45:37 PM 20.6060 -158.4760 34° Northeast 346 398 12,200 -1,667 Descending FlightAware ADS-B
Tue 12:46:22 PM 20.6690 -158.4310 34° Northeast 339 390 10,800 -1,482 Descending FlightAware ADS-B
Tue 12:47:02 PM 20.7190 -158.3950 34° Northeast 328 377 10,100 -918 Descending FlightAware ADS-B
Tue 12:47:47 PM 20.7750 -158.3550 34° Northeast 299 344 9,500 -1,050 Descending FlightAware ADS-B
Tue 12:48:22 PM 20.8160 -158.3300 30° Northeast 298 343 8,700 -1,200 Descending FlightAware ADS-B
Tue 12:48:47 PM 20.8430 -158.3150 27° Northeast 293 337 8,300 -857 Descending FlightAware ADS-B
Tue 12:49:32 PM 20.9000 -158.2820 28° Northeast 293 337 7,700 -1,050 Descending FlightAware ADS-B
Tue 12:50:07 PM 20.9420 -158.2590 27° Northeast 293 337 6,900 -1,371 Descending FlightAware ADS-B
Tue 12:52:00 PM 21.1288 -158.0917 40° Northeast  Level FlightAware Approximate
Tue 12:53:00 PM 21.2279 -158.0027 40° Northeast  Level FlightAware Approximate
Tue 12:54:00 PM 21.3083 -157.9304 34° Northeast  Level FlightAware Approximate
Tue 12:55:00 PM 21.3187 -157.9224 34° Northeast  Level Estimated
Tue 12:56:00 PM 21.3187 -157.9224 34° Northeast  Level Estimated
Tue 12:57:00 PM 21.3187 -157.9224 34° Northeast  Level Estimated
Tue 12:58:00 PM 21.3187 -157.9224 34° Northeast  Level Estimated
Tue 12:59:00 PM 21.3187 -157.9224 34° Northeast  Level Estimated
Tue 01:00:00 PM 21.3187 -157.9224 34° Northeast  Level Estimated
Tue 01:01:00 PM 21.3187 -157.9224 34° Northeast  Level Estimated
Tue 01:02:00 PM 21.3187 -157.9224 34° Northeast  Level Estimated
Tue 01:03:00 PM 21.3187 -157.9224 34° Northeast  Level Estimated
Tue 01:04:00 PM 21.3187 -157.9224 34° Northeast  Level Estimated
Tue 01:05:00 PM 21.3187 -157.9224 34° Northeast  Level Estimated
Tue 01:06:00 PM 21.3187 -157.9224 34° Northeast  Level Estimated
Tue 01:07:00 PM 21.3187 -157.9224 34° Northeast  Level Estimated
Tue 01:08:00 PM 21.3187 -157.9224 34° Northeast  Level Estimated
Tue 01:09:00 PM 21.3187 -157.9224 34° Northeast  Level Estimated

Login

Don't have an account? Register now (free) for customized features, flight alerts, and more!